DESAW EDDH-EDDH
Flight info
| Callsign | DESAW |
|---|---|
| Flight time | 0h 17m |
| Altitude | 3000 |
| Route | VFR |
| Aircraft | BE38/L-V/N |
Departure
| Time | 2026-04-21 00:19 |
|---|---|
| Airport | Hamburg Helmut Schmidt Airport (EDDH) |
Arrival
| Time | 2026-04-21 00:37 |
|---|---|
| Airport | Hamburg Helmut Schmidt Airport (EDDH) |
| Time | Latitude | Longitude | Altitude | Speed | Heading |
|---|---|---|---|---|---|
| 2026-04-21 00:15 | 53.62656 | 9.98789 | 46 ft | 5 kts | 353° |
| 2026-04-21 00:15 | 53.62664 | 9.98740 | 46 ft | 5 kts | 249° |
| 2026-04-21 00:15 | 53.62673 | 9.98692 | 46 ft | 6 kts | 301° |
| 2026-04-21 00:16 | 53.62711 | 9.98644 | 46 ft | 7 kts | 327° |
| 2026-04-21 00:16 | 53.62691 | 9.98552 | 46 ft | 12 kts | 254° |
| 2026-04-21 00:16 | 53.62726 | 9.98469 | 46 ft | 7 kts | 353° |
| 2026-04-21 00:16 | 53.62750 | 9.98472 | 46 ft | 0 kts | 9° |
| 2026-04-21 00:17 | 53.62793 | 9.98480 | 47 ft | 12 kts | 11° |
| 2026-04-21 00:18 | 53.62905 | 9.98557 | 46 ft | 21 kts | 48° |
| 2026-04-21 00:18 | 53.62918 | 9.98585 | 45 ft | 0 kts | 50° |
| 2026-04-21 00:19 | 53.62934 | 9.98617 | 45 ft | 21 kts | 50° |
| 2026-04-21 00:19 | 53.63240 | 9.99238 | 83 ft | 105 kts | 47° |
| 2026-04-21 00:19 | 53.63468 | 10.00427 | 554 ft | 120 kts | 108° |
| 2026-04-21 00:19 | 53.62738 | 10.01218 | 937 ft | 138 kts | 161° |
| 2026-04-21 00:20 | 53.61817 | 10.01571 | 995 ft | 137 kts | 160° |
| 2026-04-21 00:20 | 53.60871 | 10.01663 | 1104 ft | 142 kts | 187° |
| 2026-04-21 00:20 | 53.60073 | 10.00665 | 1006 ft | 152 kts | 231° |
| 2026-04-21 00:20 | 53.59483 | 9.99199 | 953 ft | 143 kts | 235° |
| 2026-04-21 00:21 | 53.58940 | 9.97824 | 804 ft | 144 kts | 237° |
| 2026-04-21 00:21 | 53.58477 | 9.96371 | 717 ft | 132 kts | 260° |
| 2026-04-21 00:21 | 53.58619 | 9.95060 | 748 ft | 106 kts | 305° |
| 2026-04-21 00:21 | 53.59070 | 9.94231 | 696 ft | 86 kts | 332° |
| 2026-04-21 00:22 | 53.59586 | 9.93942 | 587 ft | 76 kts | 356° |
| 2026-04-21 00:22 | 53.60116 | 9.93913 | 542 ft | 75 kts | 7° |
| 2026-04-21 00:22 | 53.60619 | 9.94159 | 487 ft | 76 kts | 25° |
| 2026-04-21 00:22 | 53.61027 | 9.94732 | 383 ft | 80 kts | 51° |
| 2026-04-21 00:23 | 53.61376 | 9.95474 | 241 ft | 81 kts | 47° |
| 2026-04-21 00:23 | 53.61732 | 9.96180 | 134 ft | 78 kts | 46° |
| 2026-04-21 00:23 | 53.62074 | 9.96880 | 60 ft | 77 kts | 47° |
| 2026-04-21 00:23 | 53.62400 | 9.97538 | 47 ft | 63 kts | 43° |
| 2026-04-21 00:24 | 53.62749 | 9.98299 | 246 ft | 100 kts | 56° |
| 2026-04-21 00:24 | 53.62742 | 9.99393 | 727 ft | 115 kts | 141° |
| 2026-04-21 00:24 | 53.61939 | 9.99744 | 1125 ft | 127 kts | 161° |
| 2026-04-21 00:24 | 53.61006 | 9.99973 | 1193 ft | 138 kts | 160° |
| 2026-04-21 00:25 | 53.60147 | 9.99438 | 1425 ft | 146 kts | 235° |
| 2026-04-21 00:25 | 53.59595 | 9.97888 | 1372 ft | 163 kts | 235° |
| 2026-04-21 00:25 | 53.58958 | 9.96321 | 1367 ft | 161 kts | 231° |
| 2026-04-21 00:25 | 53.58373 | 9.94861 | 1346 ft | 137 kts | 233° |
| 2026-04-21 00:26 | 53.57872 | 9.93585 | 1342 ft | 129 kts | 232° |
| 2026-04-21 00:26 | 53.57359 | 9.92361 | 1262 ft | 128 kts | 231° |
| 2026-04-21 00:26 | 53.56968 | 9.91045 | 1231 ft | 122 kts | 274° |
| 2026-04-21 00:26 | 53.57292 | 9.89856 | 1192 ft | 110 kts | 318° |
| 2026-04-21 00:27 | 53.57802 | 9.89126 | 1268 ft | 79 kts | 2° |
| 2026-04-21 00:27 | 53.58289 | 9.89276 | 1208 ft | 72 kts | 41° |
| 2026-04-21 00:27 | 53.58651 | 9.89846 | 1094 ft | 72 kts | 54° |
| 2026-04-21 00:27 | 53.58953 | 9.90501 | 985 ft | 72 kts | 56° |
| 2026-04-21 00:28 | 53.59272 | 9.91182 | 856 ft | 77 kts | 51° |
| 2026-04-21 00:28 | 53.59622 | 9.91891 | 750 ft | 80 kts | 52° |
| 2026-04-21 00:28 | 53.59964 | 9.92633 | 684 ft | 80 kts | 51° |
| 2026-04-21 00:28 | 53.60312 | 9.93364 | 586 ft | 79 kts | 50° |
| 2026-04-21 00:29 | 53.60668 | 9.94063 | 473 ft | 79 kts | 47° |
| 2026-04-21 00:29 | 53.61039 | 9.94781 | 394 ft | 82 kts | 48° |
| 2026-04-21 00:29 | 53.61385 | 9.95484 | 269 ft | 75 kts | 48° |
| 2026-04-21 00:29 | 53.61720 | 9.96163 | 143 ft | 77 kts | 47° |
| 2026-04-21 00:30 | 53.61944 | 9.96624 | 67 ft | 76 kts | 46° |
| 2026-04-21 00:30 | 53.62382 | 9.97503 | 63 ft | 74 kts | 55° |
| 2026-04-21 00:30 | 53.62709 | 9.98171 | 62 ft | 74 kts | 45° |
| 2026-04-21 00:30 | 53.62919 | 9.98675 | 200 ft | 89 kts | 69° |
| 2026-04-21 00:31 | 53.62588 | 9.99644 | 414 ft | 117 kts | 149° |
| 2026-04-21 00:31 | 53.61750 | 10.00300 | 517 ft | 147 kts | 160° |
| 2026-04-21 00:31 | 53.60743 | 9.99875 | 628 ft | 166 kts | 223° |
| 2026-04-21 00:31 | 53.60145 | 9.98555 | 649 ft | 128 kts | 240° |
| 2026-04-21 00:32 | 53.59699 | 9.97361 | 546 ft | 113 kts | 239° |
| 2026-04-21 00:32 | 53.59324 | 9.96362 | 473 ft | 87 kts | 259° |
| 2026-04-21 00:32 | 53.59477 | 9.95487 | 326 ft | 80 kts | 319° |
| 2026-04-21 00:32 | 53.59891 | 9.94977 | 270 ft | 65 kts | 330° |
| 2026-04-21 00:33 | 53.60297 | 9.94619 | 249 ft | 70 kts | 341° |
| 2026-04-21 00:33 | 53.60766 | 9.94810 | 262 ft | 76 kts | 31° |
| 2026-04-21 00:33 | 53.61226 | 9.95337 | 251 ft | 82 kts | 34° |
| 2026-04-21 00:33 | 53.61660 | 9.96028 | 152 ft | 89 kts | 48° |
| 2026-04-21 00:34 | 53.62050 | 9.96822 | 58 ft | 87 kts | 49° |
| 2026-04-21 00:34 | 53.62411 | 9.97555 | 84 ft | 72 kts | 47° |
| 2026-04-21 00:34 | 53.62715 | 9.98213 | 222 ft | 72 kts | 63° |
| 2026-04-21 00:34 | 53.62417 | 9.98962 | 310 ft | 105 kts | 159° |
| 2026-04-21 00:35 | 53.61711 | 9.99188 | 476 ft | 113 kts | 172° |
| 2026-04-21 00:35 | 53.60958 | 9.98743 | 827 ft | 128 kts | 236° |
| 2026-04-21 00:35 | 53.60551 | 9.97456 | 977 ft | 115 kts | 259° |
| 2026-04-21 00:35 | 53.60754 | 9.96307 | 765 ft | 104 kts | 321° |
| 2026-04-21 00:36 | 53.61284 | 9.95975 | 432 ft | 72 kts | 5° |
| 2026-04-21 00:36 | 53.61712 | 9.96240 | 138 ft | 68 kts | 35° |
| 2026-04-21 00:36 | 53.62045 | 9.96828 | 53 ft | 67 kts | 46° |
| 2026-04-21 00:36 | 53.62316 | 9.97358 | 48 ft | 51 kts | 52° |
| 2026-04-21 00:37 | 53.62498 | 9.97732 | 45 ft | 34 kts | 49° |
| 2026-04-21 00:37 | 53.62626 | 9.97975 | 46 ft | 23 kts | 53° |
| 2026-04-21 00:37 | 53.62718 | 9.98175 | 48 ft | 20 kts | 53° |
| 2026-04-21 00:37 | 53.62735 | 9.98364 | 47 ft | 16 kts | 142° |
| 2026-04-21 00:38 | 53.62667 | 9.98488 | 46 ft | 7 kts | 78° |
| 2026-04-21 00:38 | 53.62704 | 9.98582 | 46 ft | 11 kts | 48° |
| 2026-04-21 00:38 | 53.62718 | 9.98638 | 46 ft | 4 kts | 141° |
| 2026-04-21 00:38 | 53.62675 | 9.98672 | 46 ft | 8 kts | 155° |
| 2026-04-21 00:39 | 53.62661 | 9.98727 | 46 ft | 6 kts | 53° |
| 2026-04-21 00:39 | 53.62669 | 9.98749 | 46 ft | 0 kts | 61° |